Time;durP1;ratioP1;P1;durP2;ratioP2;P2;SDS_P1;SDS_P2;PMS_P1;PMS_P2;Temp;Humidity;BMP_temperature;BMP_pressure;BME280_temperature;BME280_humidity;BME280_pressure;Samples;Min_cycle;Max_cycle;Signal;HPM_P1;HPM_P2
2023/04/28 00:00:12;;;;;;;6.05;3.70;;;;;;;6.33;53.39;93578.13;516049;28;944;-58
2023/04/28 00:00:28;;;;;;;7.03;3.57;;;;;;;6.28;53.38;93575.47;515972;28;1976;-58
2023/04/28 00:00:43;;;;;;;9.05;3.28;;;;;;;6.24;53.45;93575.75;516146;28;876;-58
2023/04/28 00:00:59;;;;;;;10.33;3.20;;;;;;;6.09;53.70;93567.22;516083;28;839;-58
2023/04/28 00:01:14;;;;;;;9.55;3.10;;;;;;;6.10;53.89;93574.19;516159;28;857;-58
2023/04/28 00:01:30;;;;;;;7.15;3.58;;;;;;;6.12;54.15;93577.16;516138;28;820;-57
2023/04/28 00:01:45;;;;;;;4.43;3.50;;;;;;;6.13;54.33;93575.16;516055;28;864;-58
2023/04/28 00:02:01;;;;;;;3.70;3.03;;;;;;;6.15;54.41;93573.34;516184;28;818;-58
2023/04/28 00:02:17;;;;;;;4.38;3.20;;;;;;;6.18;54.17;93580.56;515961;28;1504;-58
2023/04/28 00:02:33;;;;;;;3.75;2.80;;;;;;;6.23;54.27;93582.50;516044;28;907;-58
2023/04/28 00:02:48;;;;;;;3.10;2.70;;;;;;;6.25;54.15;93569.00;516029;28;858;-58
2023/04/28 00:03:04;;;;;;;4.27;3.00;;;;;;;6.29;54.03;93574.94;516138;28;818;-58
2023/04/28 00:03:19;;;;;;;5.45;3.10;;;;;;;6.30;53.94;93575.69;516030;28;963;-58
2023/04/28 00:03:35;;;;;;;5.70;3.10;;;;;;;6.25;54.64;93579.22;516157;28;816;-58
2023/04/28 00:03:52;;;;;;;4.50;2.78;;;;;;;6.07;54.77;93572.47;516115;28;860;-58
2023/04/28 00:04:07;;;;;;;4.80;2.70;;;;;;;5.99;54.98;93577.81;515989;28;939;-58
2023/04/28 00:04:23;;;;;;;4.83;2.87;;;;;;;6.02;55.16;93579.50;516040;28;902;-59
2023/04/28 00:04:38;;;;;;;3.95;2.88;;;;;;;6.00;55.04;93581.25;516063;28;832;-58
2023/04/28 00:04:54;;;;;;;4.83;2.70;;;;;;;6.00;54.92;93579.28;516071;28;1054;-58
2023/04/28 00:05:09;;;;;;;4.90;2.72;;;;;;;6.02;54.92;93582.22;516165;28;894;-58
2023/04/28 00:05:25;;;;;;;3.87;2.47;;;;;;;6.07;54.72;93580.69;516082;28;871;-58
2023/04/28 00:05:41;;;;;;;4.00;2.45;;;;;;;6.07;54.28;93573.22;516090;28;943;-58
2023/04/28 00:05:56;;;;;;;4.93;2.63;;;;;;;6.12;54.14;93577.16;516007;28;887;-58
2023/04/28 00:06:11;;;;;;;4.07;2.70;;;;;;;6.12;54.20;93582.63;516096;28;810;-58
2023/04/28 00:06:27;;;;;;;3.43;2.80;;;;;;;6.09;54.53;93578.91;516037;28;1088;-58
2023/04/28 00:06:42;;;;;;;4.57;2.78;;;;;;;6.07;54.39;93580.69;516140;28;769;-58
2023/04/28 00:06:58;;;;;;;5.00;2.83;;;;;;;6.06;54.51;93573.75;516007;28;1466;-58
2023/04/28 00:07:13;;;;;;;4.30;2.90;;;;;;;6.03;54.20;93566.53;516011;28;880;-58
2023/04/28 00:07:28;;;;;;;4.50;3.20;;;;;;;6.09;54.28;93580.91;515749;28;810;-58
2023/04/28 00:07:44;;;;;;;5.67;3.57;;;;;;;6.09;54.08;93570.69;515861;28;793;-58
2023/04/28 00:07:59;;;;;;;6.50;4.05;;;;;;;6.11;54.31;93576.41;515723;28;797;-58
2023/04/28 00:08:16;;;;;;;6.70;4.60;;;;;;;6.13;54.32;93575.88;515946;28;942;-58
2023/04/28 00:08:32;;;;;;;8.20;4.60;;;;;;;6.11;54.65;93576.41;516090;28;814;-58
2023/04/28 00:08:47;;;;;;;7.45;4.25;;;;;;;6.12;54.57;93579.88;515864;28;817;-58
2023/04/28 00:09:03;;;;;;;6.10;4.30;;;;;;;6.10;54.78;93585.16;516154;28;1029;-58
2023/04/28 00:09:18;;;;;;;7.90;4.47;;;;;;;6.07;55.21;93575.97;516060;28;825;-58
2023/04/28 00:09:33;;;;;;;9.63;4.70;;;;;;;5.87;55.40;93548.28;516081;28;984;-58
2023/04/28 00:09:49;;;;;;;7.93;4.47;;;;;;;6.08;55.75;93573.97;516021;28;977;-58
2023/04/28 00:10:05;;;;;;;5.93;3.97;;;;;;;6.08;55.54;93580.19;516016;28;963;-58
2023/04/28 00:10:20;;;;;;;6.80;4.15;;;;;;;6.07;55.40;93580.69;516051;28;856;-57
2023/04/28 00:10:36;;;;;;;7.00;3.88;;;;;;;6.08;54.64;93568.47;516117;28;790;-58
2023/04/28 00:10:52;;;;;;;6.10;3.77;;;;;;;6.08;54.49;93571.97;516137;28;1209;-58
2023/04/28 00:11:10;;;;;;;5.82;4.00;;;;;;;6.11;54.08;93578.41;516078;28;762;-58
2023/04/28 00:11:25;;;;;;;7.63;4.30;;;;;;;6.11;53.90;93576.41;516113;28;858;-59
2023/04/28 00:11:43;;;;;;;9.43;4.50;;;;;;;6.12;53.80;93582.63;516087;28;947;-58
2023/04/28 00:11:59;;;;;;;7.20;4.13;;;;;;;6.10;53.68;93576.94;516031;28;1847;-58
2023/04/28 00:12:14;;;;;;;6.07;4.10;;;;;;;5.93;53.92;93582.56;516014;28;842;-58
2023/04/28 00:12:30;;;;;;;7.60;4.23;;;;;;;5.70;54.83;93572.34;516135;28;771;-58
2023/04/28 00:12:45;;;;;;;8.82;4.57;;;;;;;5.56;55.13;93577.00;516053;28;1039;-58
2023/04/28 00:13:00;;;;;;;8.00;3.97;;;;;;;5.43;55.54;93579.59;515964;28;880;-58
2023/04/28 00:13:16;;;;;;;6.03;2.90;;;;;;;5.38;55.77;93577.66;516039;28;880;-58
2023/04/28 00:13:31;;;;;;;3.87;2.80;;;;;;;5.38;55.69;93577.66;516084;28;840;-58
2023/04/28 00:13:46;;;;;;;4.57;3.20;;;;;;;5.30;56.07;93582.22;516067;28;935;-58
2023/04/28 00:14:02;;;;;;;6.05;3.35;;;;;;;5.29;56.18;93581.47;516069;28;857;-58
2023/04/28 00:14:17;;;;;;;7.43;3.37;;;;;;;5.33;56.49;93579.19;515946;28;873;-58
2023/04/28 00:14:33;;;;;;;6.53;3.43;;;;;;;5.35;56.46;93573.19;516035;28;855;-58
2023/04/28 00:14:48;;;;;;;6.68;3.60;;;;;;;5.38;56.60;93574.91;516014;28;777;-59
2023/04/28 00:15:04;;;;;;;6.63;3.63;;;;;;;5.43;56.39;93576.13;516133;28;810;-58
2023/04/28 00:15:19;;;;;;;4.40;3.38;;;;;;;5.44;56.59;93580.31;516018;28;871;-58
2023/04/28 00:15:35;;;;;;;4.90;3.50;;;;;;;5.39;57.31;93590.09;516071;28;861;-58
2023/04/28 00:15:51;;;;;;;4.63;3.53;;;;;;;5.23;57.69;93580.03;516158;28;849;-58
2023/04/28 00:16:07;;;;;;;4.75;3.50;;;;;;;5.02;58.72;93589.91;515950;28;916;-58
2023/04/28 00:16:22;;;;;;;4.57;3.05;;;;;;;5.00;58.67;93584.94;515952;28;1578;-58
2023/04/28 00:16:38;;;;;;;4.72;3.03;;;;;;;5.02;58.77;93589.91;516022;28;1139;-58
2023/04/28 00:16:55;;;;;;;5.07;3.20;;;;;;;5.00;58.60;93579.47;516093;28;966;-58
2023/04/28 00:17:11;;;;;;;4.00;3.00;;;;;;;5.00;58.06;93581.47;516106;28;910;-58
2023/04/28 00:17:26;;;;;;;4.45;2.80;;;;;;;5.04;57.94;93581.94;516089;28;778;-58
2023/04/28 00:17:42;;;;;;;3.80;2.50;;;;;;;5.09;57.86;93584.63;516022;28;911;-58
2023/04/28 00:17:57;;;;;;;3.00;2.70;;;;;;;5.13;58.02;93579.59;515982;28;841;-58
2023/04/28 00:18:12;;;;;;;3.90;2.97;;;;;;;5.10;58.19;93577.91;516000;28;790;-58
2023/04/28 00:18:28;;;;;;;4.20;2.97;;;;;;;5.11;58.23;93581.38;516003;28;832;-58
2023/04/28 00:18:43;;;;;;;4.60;3.17;;;;;;;5.14;58.20;93583.09;516157;28;816;-58
2023/04/28 00:18:59;;;;;;;4.80;3.10;;;;;;;5.16;57.82;93583.31;516120;28;823;-58
2023/04/28 00:19:14;;;;;;;3.97;2.90;;;;;;;5.19;57.78;93583.06;516048;28;782;-59
2023/04/28 00:19:29;;;;;;;3.37;2.83;;;;;;;5.23;57.55;93583.53;516094;28;769;-58
2023/04/28 00:19:45;;;;;;;3.60;2.83;;;;;;;5.27;57.42;93583.22;516073;28;895;-58
2023/04/28 00:20:01;;;;;;;4.83;3.20;;;;;;;5.31;57.37;93584.44;516017;28;892;-58
2023/04/28 00:20:16;;;;;;;4.47;3.10;;;;;;;5.30;57.29;93582.97;515940;28;1004;-58
2023/04/28 00:20:32;;;;;;;4.57;3.30;;;;;;;5.30;57.22;93582.22;516054;28;1973;-58
2023/04/28 00:20:47;;;;;;;4.80;3.37;;;;;;;5.30;57.10;93587.69;516079;28;803;-58
2023/04/28 00:21:03;;;;;;;4.47;3.20;;;;;;;5.19;57.95;93577.59;516122;28;773;-58
2023/04/28 00:21:18;;;;;;;5.82;3.08;;;;;;;5.17;57.66;93584.81;516039;28;827;-59
2023/04/28 00:21:33;;;;;;;6.57;3.23;;;;;;;5.15;57.49;93581.84;516194;28;840;-58
2023/04/28 00:21:49;;;;;;;9.75;3.75;;;;;;;5.15;57.55;93585.34;516076;28;828;-58
2023/04/28 00:22:05;;;;;;;9.10;3.57;;;;;;;5.16;57.30;93584.06;516014;28;816;-58
2023/04/28 00:22:20;;;;;;;4.60;3.20;;;;;;;5.16;57.32;93583.31;516041;28;842;-58
2023/04/28 00:22:36;;;;;;;6.60;3.35;;;;;;;5.17;57.27;93587.56;515994;28;829;-58
2023/04/28 00:22:51;;;;;;;7.67;3.90;;;;;;;5.22;57.15;93586.75;516065;28;912;-58
2023/04/28 00:23:06;;;;;;;5.20;3.67;;;;;;;5.23;57.14;93588.25;515935;28;880;-58
2023/04/28 00:23:22;;;;;;;4.13;3.15;;;;;;;5.26;57.33;93587.22;516013;28;869;-58
2023/04/28 00:23:37;;;;;;;5.03;3.03;;;;;;;5.27;57.62;93589.44;515992;28;1690;-58
2023/04/28 00:23:53;;;;;;;4.73;3.17;;;;;;;5.29;57.62;93586.94;516126;28;796;-58
2023/04/28 00:24:08;;;;;;;4.70;3.40;;;;;;;5.29;57.81;93586.19;515982;28;832;-58
2023/04/28 00:24:24;;;;;;;5.00;3.30;;;;;;;5.32;58.10;93590.66;516055;28;765;-58
2023/04/28 00:24:40;;;;;;;4.33;3.27;;;;;;;5.16;58.66;93581.31;516002;28;881;-58
2023/04/28 00:24:56;;;;;;;4.07;3.33;;;;;;;5.10;59.03;93596.31;516012;28;1088;-58
2023/04/28 00:25:11;;;;;;;3.92;3.20;;;;;;;5.03;59.35;93594.13;515961;28;1188;-58
2023/04/28 00:25:26;;;;;;;4.90;3.30;;;;;;;4.99;59.45;93586.19;516079;28;790;-58
2023/04/28 00:25:42;;;;;;;4.70;3.05;;;;;;;4.98;59.62;93590.16;516034;28;792;-58
2023/04/28 00:25:57;;;;;;;4.07;3.13;;;;;;;4.97;59.81;93594.19;516020;28;783;-58
2023/04/28 00:26:12;;;;;;;5.23;3.20;;;;;;;4.95;59.93;93587.72;516049;28;842;-59
2023/04/28 00:26:28;;;;;;;6.18;3.08;;;;;;;4.97;59.96;93593.44;515976;28;1173;-58
2023/04/28 00:26:43;;;;;;;7.27;3.40;;;;;;;4.99;59.72;93588.94;516115;28;861;-58
2023/04/28 00:26:59;;;;;;;7.97;3.53;;;;;;;5.03;59.75;93589.41;515963;28;820;-58
2023/04/28 00:27:14;;;;;;;6.13;3.30;;;;;;;5.06;59.72;93590.38;516091;28;950;-58
2023/04/28 00:27:29;;;;;;;4.73;3.47;;;;;;;5.09;59.71;93586.63;516037;28;801;-58
2023/04/28 00:27:45;;;;;;;4.40;3.70;;;;;;;5.13;59.62;93587.09;515998;28;827;-58
2023/04/28 00:28:00;;;;;;;5.17;3.70;;;;;;;5.16;59.55;93588.78;516038;28;786;-58
2023/04/28 00:28:16;;;;;;;5.43;3.58;;;;;;;5.20;59.63;93589.25;515892;28;1520;-58
2023/04/28 00:28:31;;;;;;;4.33;3.30;;;;;;;5.20;59.50;93589.25;516068;28;841;-58
2023/04/28 00:28:46;;;;;;;9.17;3.50;;;;;;;5.20;58.96;93594.72;516038;28;1215;-58
2023/04/28 00:29:02;;;;;;;9.50;3.53;;;;;;;5.17;59.05;93595.75;516037;28;919;-58
2023/04/28 00:29:17;;;;;;;4.33;3.03;;;;;;;5.19;59.01;93590.53;515989;28;863;-58
2023/04/28 00:29:32;;;;;;;3.67;3.07;;;;;;;5.16;59.32;93592.28;516053;28;953;-58
2023/04/28 00:29:48;;;;;;;4.68;3.28;;;;;;;5.17;59.27;93587.56;515997;28;1042;-58
2023/04/28 00:30:03;;;;;;;4.90;3.47;;;;;;;5.20;59.20;93589.25;516043;28;968;-58
2023/04/28 00:30:19;;;;;;;6.75;3.75;;;;;;;5.20;59.22;93594.72;515952;28;836;-58
2023/04/28 00:30:34;;;;;;;6.57;3.47;;;;;;;5.23;59.13;93586.25;516068;28;798;-59
2023/04/28 00:30:50;;;;;;;5.47;3.40;;;;;;;5.23;59.10;93588.25;515738;28;1111;-58
2023/04/28 00:31:12;;;;;;;5.17;3.43;;;;;;;5.23;58.98;93585.50;516045;28;791;-58
2023/04/28 00:31:27;;;;;;;7.10;3.60;;;;;;;5.24;58.83;93589.75;515970;28;896;-58
2023/04/28 00:31:43;;;;;;;7.13;3.50;;;;;;;5.21;58.46;93580.56;516117;28;877;-58
2023/04/28 00:31:59;;;;;;;5.18;3.42;;;;;;;5.19;58.19;93585.03;515917;28;884;-58
2023/04/28 00:32:14;;;;;;;5.83;3.40;;;;;;;5.18;58.18;93583.53;516684;28;1155;-58
2023/04/28 00:32:29;;;;;;;5.90;3.50;;;;;;;5.14;58.03;93583.84;518101;28;828;-58
2023/04/28 00:32:45;;;;;;;4.57;3.28;;;;;;;5.15;58.25;93590.06;518090;28;968;-58
2023/04/28 00:33:00;;;;;;;4.53;3.23;;;;;;;5.15;58.22;93588.06;518074;28;876;-58
2023/04/28 00:33:15;;;;;;;5.97;3.50;;;;;;;5.13;58.18;93587.81;517962;28;907;-58
2023/04/28 00:33:31;;;;;;;6.18;3.20;;;;;;;5.13;58.09;93590.56;516708;28;1772;-58
2023/04/28 00:33:46;;;;;;;4.47;3.23;;;;;;;5.09;58.05;93590.09;516010;28;873;-58
2023/04/28 00:34:02;;;;;;;4.93;3.70;;;;;;;5.07;57.90;93589.09;516094;28;769;-58
2023/04/28 00:34:17;;;;;;;6.40;3.80;;;;;;;5.04;58.27;93584.66;515928;28;828;-58
2023/04/28 00:34:33;;;;;;;5.80;3.77;;;;;;;4.96;58.18;93575.53;516080;28;1120;-58
2023/04/28 00:34:48;;;;;;;5.32;3.75;;;;;;;5.00;58.79;93581.47;516048;28;1098;-58
2023/04/28 00:35:04;;;;;;;6.37;3.57;;;;;;;5.05;59.01;93589.63;516079;28;870;-58
2023/04/28 00:35:20;;;;;;;4.88;3.40;;;;;;;5.07;59.14;93589.09;516101;28;871;-59
2023/04/28 00:35:35;;;;;;;4.97;3.33;;;;;;;5.09;59.17;93595.56;516075;28;926;-58
2023/04/28 00:35:58;;;;;;;6.13;3.58;;;;;;;5.13;59.13;93585.06;515989;28;1188;-58
2023/04/28 00:36:13;;;;;;;6.05;3.90;;;;;;;5.12;59.83;93585.59;515914;28;1710;-58
2023/04/28 00:36:31;;;;;;;7.25;4.07;;;;;;;5.11;59.97;93587.59;516000;28;923;-58
2023/04/28 00:36:46;;;;;;;6.38;3.95;;;;;;;5.13;60.07;93587.81;516014;28;869;-58
2023/04/28 00:37:02;;;;;;;5.33;3.47;;;;;;;5.15;59.91;93588.06;516107;28;1070;-58
2023/04/28 00:37:19;;;;;;;5.18;3.35;;;;;;;5.18;60.10;93591.75;516007;28;898;-58
2023/04/28 00:37:38;;;;;;;5.93;3.75;;;;;;;5.19;60.15;93591.28;516106;28;813;-58
2023/04/28 00:37:53;;;;;;;6.72;4.35;;;;;;;5.22;60.35;93592.22;516002;28;951;-58
2023/04/28 00:38:08;;;;;;;6.77;4.50;;;;;;;5.23;60.53;93585.50;515976;28;1068;-58
2023/04/28 00:38:24;;;;;;;5.97;4.57;;;;;;;5.25;60.50;93597.44;515991;28;815;-58
2023/04/28 00:38:39;;;;;;;6.43;4.37;;;;;;;5.27;60.44;93596.91;516002;28;813;-58
2023/04/28 00:38:55;;;;;;;7.07;4.13;;;;;;;5.28;60.26;93593.66;515998;28;1537;-59
2023/04/28 00:39:10;;;;;;;6.70;4.37;;;;;;;5.29;59.89;93597.13;516004;28;873;-59
2023/04/28 00:39:26;;;;;;;6.03;3.93;;;;;;;5.30;59.68;93590.44;515980;28;1012;-58
2023/04/28 00:39:45;;;;;;;5.40;3.80;;;;;;;5.23;58.91;93582.78;516099;28;909;-59
2023/04/28 00:40:01;;;;;;;5.85;3.90;;;;;;;5.23;58.72;93593.72;515929;28;1127;-58
2023/04/28 00:40:16;;;;;;;6.33;3.53;;;;;;;5.21;58.49;93596.22;515906;28;931;-58
2023/04/28 00:40:33;;;;;;;6.95;3.50;;;;;;;5.19;58.40;93596.00;515917;28;1973;-58
2023/04/28 00:40:48;;;;;;;6.43;3.83;;;;;;;5.17;57.89;93595.75;516035;28;857;-58
2023/04/28 00:41:03;;;;;;;7.43;3.67;;;;;;;5.20;58.29;93595.47;516048;28;861;-58
2023/04/28 00:41:19;;;;;;;6.53;3.70;;;;;;;5.22;58.23;93594.97;516014;28;865;-58
2023/04/28 00:41:35;;;;;;;4.95;3.83;;;;;;;5.23;58.57;93604.66;515964;28;872;-58
2023/04/28 00:41:50;;;;;;;5.50;3.87;;;;;;;5.24;58.76;93600.69;516117;28;786;-59
2023/04/28 00:42:06;;;;;;;6.60;3.88;;;;;;;5.23;59.49;93599.19;515893;28;2384;-58
2023/04/28 00:42:22;;;;;;;7.00;4.10;;;;;;;5.12;59.74;93588.34;515907;28;915;-58
2023/04/28 00:42:37;;;;;;;6.13;4.05;;;;;;;5.22;59.90;93592.22;516000;28;911;-59
2023/04/28 00:42:52;;;;;;;6.27;3.90;;;;;;;5.22;60.11;93597.69;516109;28;826;-58
2023/04/28 00:43:08;;;;;;;6.65;4.18;;;;;;;5.16;59.92;93602.47;516003;28;872;-58
2023/04/28 00:43:23;;;;;;;7.80;4.23;;;;;;;5.15;59.76;93595.53;516068;28;830;-58
2023/04/28 00:43:46;;;;;;;6.22;3.67;;;;;;;5.10;59.73;93597.06;516002;28;859;-58
2023/04/28 00:44:02;;;;;;;6.53;4.05;;;;;;;5.08;59.39;93602.31;515980;28;814;-58
2023/04/28 00:44:17;;;;;;;6.07;4.00;;;;;;;5.09;59.66;93600.31;515913;28;829;-58
2023/04/28 00:44:32;;;;;;;4.73;3.77;;;;;;;5.11;60.03;93595.06;516108;28;819;-58
2023/04/28 00:44:48;;;;;;;4.70;3.92;;;;;;;5.14;60.13;93596.78;515968;28;837;-58
2023/04/28 00:45:06;;;;;;;4.53;3.67;;;;;;;5.15;59.80;93598.28;516076;28;841;-58
2023/04/28 00:45:21;;;;;;;4.60;3.30;;;;;;;5.17;59.46;93598.50;516021;28;956;-58
2023/04/28 00:45:36;;;;;;;5.13;3.80;;;;;;;5.17;59.52;93599.25;516048;28;852;-58
2023/04/28 00:45:52;;;;;;;6.43;4.03;;;;;;;5.19;59.31;93593.25;516083;28;789;-58
2023/04/28 00:46:07;;;;;;;6.13;3.70;;;;;;;5.17;59.13;93595.75;515979;28;957;-59
2023/04/28 00:46:29;;;;;;;4.22;3.50;;;;;;;5.14;59.78;93597.53;515928;28;1347;-58
2023/04/28 00:46:44;;;;;;;5.18;3.63;;;;;;;4.94;60.10;93578.00;516057;28;850;-58
2023/04/28 00:47:00;;;;;;;5.50;3.42;;;;;;;5.10;59.97;93594.31;515914;28;809;-58
2023/04/28 00:47:17;;;;;;;5.03;4.00;;;;;;;5.12;60.17;93596.53;515815;28;876;-58
2023/04/28 00:47:36;;;;;;;7.00;4.35;;;;;;;5.02;60.31;93590.66;515901;28;943;-58
2023/04/28 00:47:51;;;;;;;6.63;3.85;;;;;;;4.89;60.32;93590.50;515858;28;898;-58
2023/04/28 00:48:07;;;;;;;6.33;3.73;;;;;;;4.88;60.25;93596.47;513791;28;935;-58
2023/04/28 00:48:23;;;;;;;5.23;3.80;;;;;;;4.80;60.18;93601.75;513866;28;857;-58
2023/04/28 00:48:38;;;;;;;5.03;3.97;;;;;;;4.69;60.66;93596.34;513807;28;934;-58
2023/04/28 00:48:54;;;;;;;5.70;4.03;;;;;;;4.53;61.00;93589.75;514956;28;809;-58
2023/04/28 00:49:10;;;;;;;7.53;3.95;;;;;;;4.50;61.11;93598.22;515761;28;910;-58
2023/04/28 00:49:26;;;;;;;6.20;3.63;;;;;;;4.51;61.15;93600.44;515853;28;877;-58
2023/04/28 00:49:41;;;;;;;4.67;3.47;;;;;;;4.56;61.19;93593.47;515899;28;880;-58
2023/04/28 00:49:57;;;;;;;4.20;3.33;;;;;;;4.61;61.18;93593.41;515925;28;813;-58
2023/04/28 00:50:12;;;;;;;4.47;3.63;;;;;;;4.66;61.10;93593.91;515827;28;826;-58
2023/04/28 00:50:27;;;;;;;6.90;4.00;;;;;;;4.70;61.22;93592.34;515783;28;867;-58
2023/04/28 00:50:44;;;;;;;6.07;3.97;;;;;;;4.73;61.35;93596.81;515928;28;848;-58
2023/04/28 00:50:59;;;;;;;5.18;4.05;;;;;;;4.78;61.53;93595.31;515845;28;861;-58
2023/04/28 00:51:15;;;;;;;6.22;3.97;;;;;;;4.81;61.89;93591.56;513785;28;907;-58
2023/04/28 00:51:32;;;;;;;6.57;4.00;;;;;;;4.84;61.95;93593.28;513855;28;924;-58
2023/04/28 00:51:47;;;;;;;6.78;4.03;;;;;;;4.84;61.68;93596.00;513807;28;893;-58
2023/04/28 00:52:05;;;;;;;7.00;4.03;;;;;;;4.82;61.79;93596.53;514549;28;821;-58
2023/04/28 00:52:21;;;;;;;5.68;3.75;;;;;;;4.84;61.61;93593.28;515751;28;908;-58
2023/04/28 00:52:37;;;;;;;5.97;4.00;;;;;;;4.85;61.73;93592.03;515905;28;790;-58
2023/04/28 00:52:53;;;;;;;7.50;4.53;;;;;;;4.87;61.57;93587.53;515947;28;821;-58
2023/04/28 00:53:12;;;;;;;6.22;4.32;;;;;;;4.86;61.38;93596.25;515832;28;892;-58
2023/04/28 00:53:28;;;;;;;6.97;4.68;;;;;;;4.80;61.70;93595.53;515967;28;819;-58
2023/04/28 00:53:44;;;;;;;11.02;5.07;;;;;;;4.66;61.93;93593.91;515933;28;813;-58
2023/04/28 00:53:59;;;;;;;12.55;5.07;;;;;;;4.61;62.17;93600.88;515798;28;1240;-58
2023/04/28 00:54:15;;;;;;;9.07;5.20;;;;;;;4.53;62.31;93594.47;515860;28;761;-58
2023/04/28 00:54:33;;;;;;;8.25;4.97;;;;;;;4.53;62.17;93597.19;515838;28;1050;-58
2023/04/28 00:54:49;;;;;;;8.63;5.72;;;;;;;4.20;62.39;93546.19;515747;28;913;-58
2023/04/28 00:55:05;;;;;;;10.77;6.32;;;;;;;4.58;62.30;93590.97;513874;28;880;-58
2023/04/28 00:55:21;;;;;;;13.05;6.85;;;;;;;4.63;61.86;93596.38;511832;28;996;-58
2023/04/28 00:55:36;;;;;;;14.43;6.90;;;;;;;4.66;61.64;93597.38;510766;29;865;-58
2023/04/28 00:55:55;;;;;;;14.35;6.97;;;;;;;4.63;61.44;93593.66;511886;29;833;-58
2023/04/28 00:56:11;;;;;;;14.73;6.80;;;;;;;4.59;61.52;93593.19;511887;29;888;-58
2023/04/28 00:56:32;;;;;;;15.63;6.78;;;;;;;4.65;61.32;93597.88;509806;29;911;-58
2023/04/28 00:56:47;;;;;;;13.02;6.78;;;;;;;4.63;61.85;93595.66;509765;29;1812;-58
2023/04/28 00:57:03;;;;;;;13.13;6.80;;;;;;;4.55;61.93;93594.69;511515;29;822;-58
2023/04/28 00:57:19;;;;;;;12.27;6.97;;;;;;;4.53;62.31;93592.47;513419;28;838;-58
2023/04/28 00:57:35;;;;;;;11.17;7.10;;;;;;;4.55;62.14;93597.44;515478;28;902;-58
2023/04/28 00:57:50;;;;;;;12.55;7.18;;;;;;;4.57;62.40;93594.94;515786;28;1171;-58
2023/04/28 00:58:06;;;;;;;14.15;8.18;;;;;;;4.60;62.12;93597.41;515800;28;1138;-58
2023/04/28 00:58:22;;;;;;;13.82;8.90;;;;;;;4.63;61.91;93599.13;514529;28;841;-58
2023/04/28 00:58:37;;;;;;;14.45;8.85;;;;;;;4.66;61.75;93591.91;513995;28;813;-58
2023/04/28 00:58:53;;;;;;;15.77;8.27;;;;;;;4.70;61.85;93597.84;513987;28;819;-58
2023/04/28 00:59:08;;;;;;;15.15;8.35;;;;;;;4.71;61.54;93595.84;513943;28;849;-58
2023/04/28 00:59:24;;;;;;;12.10;8.10;;;;;;;4.74;61.67;93595.59;513982;28;885;-58
2023/04/28 00:59:39;;;;;;;12.33;7.93;;;;;;;4.75;61.69;93593.56;514012;28;880;-58
2023/04/28 00:59:55;;;;;;;13.93;8.40;;;;;;;4.70;62.21;93592.34;514013;28;937;-59
2023/04/28 01:00:10;;;;;;;13.33;7.80;;;;;;;4.61;62.40;93589.94;514014;28;774;-58
2023/04/28 01:00:26;;;;;;;11.68;7.15;;;;;;;4.56;62.63;93599.69;515711;28;1987;-58
2023/04/28 01:00:41;;;;;;;12.70;8.20;;;;;;;4.48;62.67;93592.53;515835;28;914;-58
2023/04/28 01:01:02;;;;;;;17.50;10.27;;;;;;;4.49;62.69;93599.47;515821;28;869;-58
2023/04/28 01:01:18;;;;;;;19.35;10.45;;;;;;;4.50;62.52;93598.22;515804;28;926;-58
2023/04/28 01:01:34;;;;;;;19.60;10.67;;;;;;;4.48;62.60;93595.25;515858;28;876;-58
2023/04/28 01:01:49;;;;;;;21.00;11.55;;;;;;;4.46;62.75;93595.00;515828;28;971;-58
2023/04/28 01:02:06;;;;;;;18.93;11.53;;;;;;;4.45;62.88;93596.25;515831;28;880;-58
2023/04/28 01:02:21;;;;;;;18.55;11.98;;;;;;;4.47;62.73;93596.47;513825;28;886;-59
2023/04/28 01:02:37;;;;;;;22.27;13.20;;;;;;;4.50;62.57;93596.22;513865;28;778;-58
2023/04/28 01:02:54;;;;;;;25.23;13.68;;;;;;;4.53;62.51;93597.94;513803;28;876;-58
2023/04/28 01:03:09;;;;;;;25.88;13.65;;;;;;;4.56;62.70;93596.19;513815;28;882;-58
2023/04/28 01:03:25;;;;;;;23.65;14.07;;;;;;;4.57;62.56;93595.69;513934;28;826;-58
2023/04/28 01:03:40;;;;;;;25.63;13.40;;;;;;;4.60;62.56;93594.69;513711;28;1905;-58
2023/04/28 01:03:55;;;;;;;28.77;13.32;;;;;;;4.61;62.75;93601.63;513864;28;1600;-58
2023/04/28 01:04:11;;;;;;;26.60;14.10;;;;;;;4.61;63.16;93604.34;513792;28;907;-59
2023/04/28 01:04:28;;;;;;;25.90;14.27;;;;;;;4.61;63.12;93598.16;513745;28;1066;-59
2023/04/28 01:04:46;;;;;;;24.40;13.95;;;;;;;4.59;63.55;93592.47;513915;28;911;-58
2023/04/28 01:05:02;;;;;;;22.20;13.15;;;;;;;4.61;63.80;93598.88;513926;28;972;-58
2023/04/28 01:05:18;;;;;;;22.73;13.13;;;;;;;4.61;63.75;93593.41;513918;28;1601;-58
2023/04/28 01:05:33;;;;;;;24.08;13.70;;;;;;;4.51;63.73;93592.25;514021;28;1011;-58
2023/04/28 01:05:49;;;;;;;21.73;13.53;;;;;;;4.43;63.82;93593.28;513927;28;860;-58
2023/04/28 01:06:05;;;;;;;22.13;13.63;;;;;;;4.37;63.90;93598.78;513986;28;918;-58
2023/04/28 01:06:21;;;;;;;22.98;12.95;;;;;;;4.33;63.81;93598.28;513949;28;913;-58
2023/04/28 01:06:37;;;;;;;21.55;12.13;;;;;;;4.26;63.91;93598.09;513968;28;846;-58
2023/04/28 01:06:55;;;;;;;19.55;11.90;;;;;;;4.27;63.96;93596.84;515877;28;825;-58
2023/04/28 01:07:10;;;;;;;18.08;11.40;;;;;;;4.28;63.67;93599.09;515768;28;1083;-58
2023/04/28 01:07:26;;;;;;;19.58;11.65;;;;;;;4.30;63.57;93599.31;515832;28;852;-58
2023/04/28 01:07:41;;;;;;;18.05;11.63;;;;;;;4.32;63.41;93593.34;515833;28;872;-58
2023/04/28 01:07:57;;;;;;;18.67;12.17;;;;;;;4.34;63.51;93597.06;515862;28;796;-58
2023/04/28 01:08:12;;;;;;;21.43;12.80;;;;;;;4.36;63.19;93600.03;515784;28;794;-58
2023/04/28 01:08:29;;;;;;;22.58;13.23;;;;;;;4.20;63.04;93570.78;515825;28;823;-58
2023/04/28 01:08:49;;;;;;;21.30;13.60;;;;;;;4.22;63.36;93601.06;514659;28;1363;-58
2023/04/28 01:09:06;;;;;;;18.70;12.32;;;;;;;3.95;63.93;93601.94;513785;28;931;-58
2023/04/28 01:09:21;;;;;;;18.58;12.05;;;;;;;3.85;64.25;93598.72;513862;28;888;-58
2023/04/28 01:09:37;;;;;;;16.77;11.43;;;;;;;3.81;64.95;93594.81;513818;28;770;-58
2023/04/28 01:09:52;;;;;;;13.80;9.63;;;;;;;3.82;64.58;93599.00;513889;28;833;-58
2023/04/28 01:10:08;;;;;;;12.82;8.90;;;;;;;3.84;64.75;93600.00;513793;28;1033;-58
2023/04/28 01:10:23;;;;;;;13.82;9.23;;;;;;;3.83;64.38;93592.31;513780;28;949;-58
2023/04/28 01:10:43;;;;;;;13.13;9.00;;;;;;;3.94;64.89;93605.94;513871;28;1621;-58
2023/04/28 01:10:58;;;;;;;14.10;8.43;;;;;;;4.01;64.71;93594.47;513793;28;1136;-59
2023/04/28 01:11:13;;;;;;;12.63;8.00;;;;;;;4.05;64.48;93597.66;513989;28;851;-58
2023/04/28 01:11:29;;;;;;;11.50;7.47;;;;;;;4.07;64.16;93597.19;513942;28;967;-58
2023/04/28 01:11:44;;;;;;;10.50;6.90;;;;;;;4.09;64.48;93600.91;513992;28;1104;-58
2023/04/28 01:12:00;;;;;;;9.43;6.50;;;;;;;4.13;64.30;93601.38;513983;28;799;-58
2023/04/28 01:12:16;;;;;;;9.88;6.40;;;;;;;4.11;64.49;93598.41;513854;28;897;-58
2023/04/28 01:12:31;;;;;;;10.10;6.53;;;;;;;4.13;64.26;93600.63;514000;28;762;-58
2023/04/28 01:12:46;;;;;;;8.97;6.27;;;;;;;4.14;64.08;93599.38;513903;28;857;-58
2023/04/28 01:13:02;;;;;;;8.00;5.90;;;;;;;4.11;64.05;93597.66;514004;28;793;-58
2023/04/28 01:13:17;;;;;;;7.78;5.88;;;;;;;4.10;63.87;93598.91;513957;28;835;-58
2023/04/28 01:13:32;;;;;;;7.90;5.87;;;;;;;4.10;63.91;93596.16;513918;28;859;-58
2023/04/28 01:13:48;;;;;;;8.67;5.70;;;;;;;4.09;63.90;93595.44;513825;28;960;-58
2023/04/28 01:14:03;;;;;;;9.65;5.60;;;;;;;4.13;63.45;93600.63;513954;28;829;-58
2023/04/28 01:14:18;;;;;;;8.77;5.27;;;;;;;4.13;63.52;93590.47;513758;28;875;-58
2023/04/28 01:14:34;;;;;;;8.07;5.20;;;;;;;4.17;63.53;93601.09;513965;28;826;-58
2023/04/28 01:14:50;;;;;;;7.45;5.20;;;;;;;4.12;63.16;93591.69;513886;28;888;-58
2023/04/28 01:15:06;;;;;;;5.80;4.88;;;;;;;4.14;63.16;93597.38;513921;28;895;-58
2023/04/28 01:15:22;;;;;;;5.80;4.97;;;;;;;4.02;63.15;93590.50;513720;28;885;-58
2023/04/28 01:15:37;;;;;;;6.78;4.93;;;;;;;3.91;63.38;93600.72;513740;28;888;-58
2023/04/28 01:15:54;;;;;;;8.23;4.83;;;;;;;3.78;63.95;93601.25;513787;28;919;-58
2023/04/28 01:16:10;;;;;;;7.18;4.97;;;;;;;3.67;64.01;93598.56;513747;28;908;-58
2023/04/28 01:16:26;;;;;;;5.32;4.75;;;;;;;3.60;64.60;93593.59;513651;28;1283;-58
2023/04/28 01:16:42;;;;;;;5.95;4.57;;;;;;;3.59;64.72;93601.06;513824;28;882;-58
2023/04/28 01:16:57;;;;;;;6.03;4.57;;;;;;;3.50;64.94;93592.38;513787;28;1573;-58
2023/04/28 01:17:13;;;;;;;7.87;4.73;;;;;;;3.45;65.19;93596.63;513874;28;840;-58
2023/04/28 01:17:28;;;;;;;8.82;4.53;;;;;;;3.48;64.98;93601.09;513736;28;923;-58
2023/04/28 01:17:45;;;;;;;6.70;4.37;;;;;;;3.51;64.82;93596.63;513871;28;806;-58
2023/04/28 01:18:00;;;;;;;6.80;4.60;;;;;;;3.54;65.07;93598.34;511772;29;1068;-58